sensor_id;sensor_type;location;lat;lon;timestamp;pressure;altitude;pressure_sealevel;temperature;humidity
23589;BME280;11972;48.078;11.876;2022-12-07T00:03:46;95306.97;;;2.36;100.00
23589;BME280;11972;48.078;11.876;2022-12-07T00:07:46;95304.22;;;2.38;100.00
23589;BME280;11972;48.078;11.876;2022-12-07T00:11:51;95300.94;;;2.36;100.00
23589;BME280;11972;48.078;11.876;2022-12-07T00:15:51;95306.97;;;2.36;100.00
23589;BME280;11972;48.078;11.876;2022-12-07T00:19:51;95302.84;;;2.34;100.00
23589;BME280;11972;48.078;11.876;2022-12-07T00:23:53;95287.75;;;2.37;100.00
23589;BME280;11972;48.078;11.876;2022-12-07T00:27:54;95295.97;;;2.42;100.00
23589;BME280;11972;48.078;11.876;2022-12-07T00:31:56;95290.75;;;2.42;100.00
23589;BME280;11972;48.078;11.876;2022-12-07T00:35:57;95293.53;;;2.41;100.00
23589;BME280;11972;48.078;11.876;2022-12-07T00:39:58;95284.72;;;2.42;100.00
23589;BME280;11972;48.078;11.876;2022-12-07T00:43:58;95286.66;;;2.40;100.00
23589;BME280;11972;48.078;11.876;2022-12-07T00:47:59;95288.31;;;2.41;100.00
23589;BME280;11972;48.078;11.876;2022-12-07T00:51:59;95290.75;;;2.42;100.00
23589;BME280;11972;48.078;11.876;2022-12-07T00:56:05;95288.84;;;2.44;100.00
23589;BME280;11972;48.078;11.876;2022-12-07T01:00:06;95290.75;;;2.42;100.00
23589;BME280;11972;48.078;11.876;2022-12-07T01:04:07;95291.88;;;2.40;100.00
23589;BME280;11972;48.078;11.876;2022-12-07T01:08:08;95284.47;;;2.35;100.00
23589;BME280;11972;48.078;11.876;2022-12-07T01:12:08;95288.03;;;2.34;100.00
23589;BME280;11972;48.078;11.876;2022-12-07T01:16:11;95289.69;;;2.35;100.00
23589;BME280;11972;48.078;11.876;2022-12-07T01:20:12;95287.75;;;2.37;100.00
23589;BME280;11972;48.078;11.876;2022-12-07T01:24:13;95282.53;;;2.37;100.00
23589;BME280;11972;48.078;11.876;2022-12-07T01:28:13;95287.75;;;2.37;100.00
23589;BME280;11972;48.078;11.876;2022-12-07T01:32:13;95284.75;;;2.32;100.00
23589;BME280;11972;48.078;11.876;2022-12-07T01:36:23;95292.72;;;2.31;100.00
23589;BME280;11972;48.078;11.876;2022-12-07T01:40:24;95290.22;;;2.29;100.00
23589;BME280;11972;48.078;11.876;2022-12-07T01:44:28;95289.00;;;2.23;100.00
23589;BME280;11972;48.078;11.876;2022-12-07T01:48:34;95284.88;;;2.21;100.00
23589;BME280;11972;48.078;11.876;2022-12-07T01:52:37;95280.91;;;2.17;100.00
23589;BME280;11972;48.078;11.876;2022-12-07T01:56:41;95283.38;;;2.18;100.00
23589;BME280;11972;48.078;11.876;2022-12-07T02:00:44;95275.69;;;2.17;100.00
23589;BME280;11972;48.078;11.876;2022-12-07T02:04:45;95278.56;;;2.14;100.00
23589;BME280;11972;48.078;11.876;2022-12-07T02:08:46;95280.09;;;2.07;100.00
23589;BME280;11972;48.078;11.876;2022-12-07T02:12:50;95279.13;;;2.08;100.00
23589;BME280;11972;48.078;11.876;2022-12-07T02:17:07;95277.47;;;2.07;100.00
23589;BME280;11972;48.078;11.876;2022-12-07T02:25:57;95277.19;;;2.10;100.00
23589;BME280;11972;48.078;11.876;2022-12-07T02:30:07;95269.38;;;2.10;100.00
23589;BME280;11972;48.078;11.876;2022-12-07T02:34:15;95274.88;;;2.16;100.00
23589;BME280;11972;48.078;11.876;2022-12-07T02:38:39;95276.50;;;2.17;100.00
23589;BME280;11972;48.078;11.876;2022-12-07T02:42:51;95267.88;;;2.17;100.00
23589;BME280;11972;48.078;11.876;2022-12-07T02:46:56;95266.22;;;2.16;100.00
23589;BME280;11972;48.078;11.876;2022-12-07T02:50:58;95267.19;;;2.15;100.00
23589;BME280;11972;48.078;11.876;2022-12-07T02:54:58;95266.63;;;2.21;100.00
23589;BME280;11972;48.078;11.876;2022-12-07T02:59:02;95266.38;;;2.24;100.00
23589;BME280;11972;48.078;11.876;2022-12-07T03:03:10;95264.97;;;2.30;100.00
23589;BME280;11972;48.078;11.876;2022-12-07T03:11:31;95271.44;;;2.35;100.00
23589;BME280;11972;48.078;11.876;2022-12-07T03:15:42;95262.50;;;2.38;100.00
23589;BME280;11972;48.078;11.876;2022-12-07T03:19:46;95268.28;;;2.41;100.00
23589;BME280;11972;48.078;11.876;2022-12-07T03:23:52;95263.47;;;2.46;100.00
23589;BME280;11972;48.078;11.876;2022-12-07T03:27:57;95271.84;;;2.40;100.00
23589;BME280;11972;48.078;11.876;2022-12-07T03:32:06;95260.34;;;2.43;100.00
23589;BME280;11972;48.078;11.876;2022-12-07T03:36:24;95261.69;;;2.37;100.00
23589;BME280;11972;48.078;11.876;2022-12-07T03:41:08;95265.81;;;2.30;100.00
23589;BME280;11972;48.078;11.876;2022-12-07T03:45:03;95257.31;;;2.28;100.00
23589;BME280;11972;48.078;11.876;2022-12-07T03:54:07;95243.72;;;2.34;100.00
23589;BME280;11972;48.078;11.876;2022-12-07T03:58:02;95249.63;;;2.36;100.00
23589;BME280;11972;48.078;11.876;2022-12-07T04:02:06;95251.25;;;2.37;100.00
23589;BME280;11972;48.078;11.876;2022-12-07T04:06:07;95246.06;;;2.37;100.00
23589;BME280;11972;48.078;11.876;2022-12-07T04:10:07;95241.00;;;2.36;100.00
23589;BME280;11972;48.078;11.876;2022-12-07T04:14:08;95239.47;;;2.33;100.00
23589;BME280;11972;48.078;11.876;2022-12-07T04:18:20;95248.09;;;2.34;100.00
23589;BME280;11972;48.078;11.876;2022-12-07T04:22:21;95241.09;;;2.34;100.00
23589;BME280;11972;48.078;11.876;2022-12-07T04:26:21;95244.69;;;2.33;100.00
23589;BME280;11972;48.078;11.876;2022-12-07T04:30:21;95240.28;;;2.34;100.00
23589;BME280;11972;48.078;11.876;2022-12-07T04:34:22;95239.47;;;2.33;100.00
23589;BME280;11972;48.078;11.876;2022-12-07T04:38:22;95247.28;;;2.33;100.00
23589;BME280;11972;48.078;11.876;2022-12-07T04:42:22;95249.22;;;2.31;100.00
23589;BME280;11972;48.078;11.876;2022-12-07T04:46:24;95242.34;;;2.40;100.00
23589;BME280;11972;48.078;11.876;2022-12-07T04:50:24;95240.16;;;2.45;100.00
23589;BME280;11972;48.078;11.876;2022-12-07T04:54:24;95239.06;;;2.47;100.00
23589;BME280;11972;48.078;11.876;2022-12-07T04:58:25;95231.78;;;2.51;100.00
23589;BME280;11972;48.078;11.876;2022-12-07T05:02:25;95235.59;;;2.57;100.00
23589;BME280;11972;48.078;11.876;2022-12-07T05:06:25;95238.88;;;2.59;100.00
23589;BME280;11972;48.078;11.876;2022-12-07T05:10:26;95244.38;;;2.65;100.00
23589;BME280;11972;48.078;11.876;2022-12-07T05:14:26;95246.28;;;2.63;100.00
23589;BME280;11972;48.078;11.876;2022-12-07T05:18:26;95239.16;;;2.65;100.00
23589;BME280;11972;48.078;11.876;2022-12-07T05:22:27;95237.63;;;2.63;100.00
23589;BME280;11972;48.078;11.876;2022-12-07T05:26:28;95246.03;;;2.57;100.00
23589;BME280;11972;48.078;11.876;2022-12-07T05:30:28;95244.13;;;2.49;100.00
23589;BME280;11972;48.078;11.876;2022-12-07T05:34:29;95252.38;;;2.44;100.00
23589;BME280;11972;48.078;11.876;2022-12-07T05:38:29;95241.00;;;2.36;100.00
23589;BME280;11972;48.078;11.876;2022-12-07T05:42:30;95242.66;;;2.27;100.00
23589;BME280;11972;48.078;11.876;2022-12-07T05:46:30;95251.56;;;2.15;100.00
23589;BME280;11972;48.078;11.876;2022-12-07T05:50:31;95243.59;;;2.07;100.00
23589;BME280;11972;48.078;11.876;2022-12-07T05:54:31;95243.59;;;1.87;100.00
23589;BME280;11972;48.078;11.876;2022-12-07T05:58:32;95242.19;;;1.64;100.00
23589;BME280;11972;48.078;11.876;2022-12-07T06:02:50;95246.97;;;1.68;100.00
23589;BME280;11972;48.078;11.876;2022-12-07T06:06:51;95251.38;;;1.68;100.00
23589;BME280;11972;48.078;11.876;2022-12-07T06:10:52;95246.31;;;1.66;100.00
23589;BME280;11972;48.078;11.876;2022-12-07T06:15:12;95256.44;;;1.69;100.00
23589;BME280;11972;48.078;11.876;2022-12-07T06:19:13;95255.63;;;1.69;100.00
23589;BME280;11972;48.078;11.876;2022-12-07T06:23:13;95257.28;;;1.70;100.00
23589;BME280;11972;48.078;11.876;2022-12-07T06:27:14;95260.84;;;1.69;100.00
23589;BME280;11972;48.078;11.876;2022-12-07T06:31:14;95262.47;;;1.70;100.00
23589;BME280;11972;48.078;11.876;2022-12-07T06:35:15;95260.97;;;1.67;100.00
23589;BME280;11972;48.078;11.876;2022-12-07T06:39:15;95273.16;;;1.67;100.00
23589;BME280;11972;48.078;11.876;2022-12-07T06:43:16;95265.19;;;1.68;100.00
23589;BME280;11972;48.078;11.876;2022-12-07T06:47:16;95267.44;;;1.73;100.00
23589;BME280;11972;48.078;11.876;2022-12-07T06:51:17;95273.31;;;1.75;100.00
23589;BME280;11972;48.078;11.876;2022-12-07T06:55:17;95269.88;;;1.74;100.00
23589;BME280;11972;48.078;11.876;2022-12-07T06:59:18;95277.00;;;1.72;100.00
23589;BME280;11972;48.078;11.876;2022-12-07T07:03:18;95283.31;;;1.70;100.00
23589;BME280;11972;48.078;11.876;2022-12-07T07:07:18;95280.00;;;1.68;100.00
23589;BME280;11972;48.078;11.876;2022-12-07T07:11:19;95283.31;;;1.70;100.00
23589;BME280;11972;48.078;11.876;2022-12-07T07:15:19;95289.06;;;1.73;100.00
23589;BME280;11972;48.078;11.876;2022-12-07T07:19:20;95293.47;;;1.73;100.00
23589;BME280;11972;48.078;11.876;2022-12-07T07:23:21;95285.78;;;1.71;100.00
23589;BME280;11972;48.078;11.876;2022-12-07T07:27:21;95290.88;;;1.73;100.00
23589;BME280;11972;48.078;11.876;2022-12-07T07:31:21;95287.97;;;1.76;100.00
23589;BME280;11972;48.078;11.876;2022-12-07T07:35:22;95291.53;;;1.85;100.00
23589;BME280;11972;48.078;11.876;2022-12-07T07:39:22;95296.09;;;1.92;100.00
23589;BME280;11972;48.078;11.876;2022-12-07T07:43:23;95300.06;;;1.96;100.00
23589;BME280;11972;48.078;11.876;2022-12-07T07:47:23;95297.88;;;2.02;100.00
23589;BME280;11972;48.078;11.876;2022-12-07T07:51:23;95301.47;;;2.10;100.00
23589;BME280;11972;48.078;11.876;2022-12-07T07:55:24;95306.41;;;2.13;100.00
23589;BME280;11972;48.078;11.876;2022-12-07T07:59:24;95303.66;;;2.15;100.00
23589;BME280;11972;48.078;11.876;2022-12-07T08:03:25;95308.59;;;2.18;100.00
23589;BME280;11972;48.078;11.876;2022-12-07T08:07:27;95301.63;;;2.28;100.00
23589;BME280;11972;48.078;11.876;2022-12-07T08:11:28;95303.97;;;2.31;100.00
23589;BME280;11972;48.078;11.876;2022-12-07T08:15:30;95306.28;;;2.34;100.00
23589;BME280;11972;48.078;11.876;2022-12-07T08:19:30;95313.81;;;2.37;100.00
23589;BME280;11972;48.078;11.876;2022-12-07T08:23:31;95310.53;;;2.45;100.00
23589;BME280;11972;48.078;11.876;2022-12-07T08:27:32;95312.47;;;2.53;100.00
23589;BME280;11972;48.078;11.876;2022-12-07T08:31:32;95315.47;;;2.58;100.00
23589;BME280;11972;48.078;11.876;2022-12-07T08:35:33;95310.81;;;2.61;100.00
23589;BME280;11972;48.078;11.876;2022-12-07T08:39:34;95308.03;;;2.63;100.00
23589;BME280;11972;48.078;11.876;2022-12-07T08:43:35;95316.16;;;2.69;100.00
23589;BME280;11972;48.078;11.876;2022-12-07T08:47:37;95319.31;;;2.73;100.00
23589;BME280;11972;48.078;11.876;2022-12-07T08:51:39;95310.91;;;2.79;100.00
23589;BME280;11972;48.078;11.876;2022-12-07T08:55:40;95312.28;;;2.83;100.00
23589;BME280;11972;48.078;11.876;2022-12-07T08:59:40;95316.25;;;2.97;100.00
23589;BME280;11972;48.078;11.876;2022-12-07T09:03:41;95313.59;;;3.07;100.00
23589;BME280;11972;48.078;11.876;2022-12-07T09:07:43;95320.84;;;3.22;100.00
23589;BME280;11972;48.078;11.876;2022-12-07T09:11:45;95326.03;;;3.32;100.00
23589;BME280;11972;48.078;11.876;2022-12-07T09:15:45;95317.81;;;3.27;100.00
23589;BME280;11972;48.078;11.876;2022-12-07T09:19:46;95309.56;;;3.32;100.00
23589;BME280;11972;48.078;11.876;2022-12-07T09:23:46;95312.13;;;3.41;100.00
23589;BME280;11972;48.078;11.876;2022-12-07T09:27:46;95308.16;;;3.37;100.00
23589;BME280;11972;48.078;11.876;2022-12-07T09:31:47;95307.59;;;3.43;100.00
23589;BME280;11972;48.078;11.876;2022-12-07T09:35:49;95310.03;;;3.55;100.00
23589;BME280;11972;48.078;11.876;2022-12-07T09:39:49;95309.09;;;3.73;100.00
23589;BME280;11972;48.078;11.876;2022-12-07T09:43:50;95302.75;;;3.76;100.00
23589;BME280;11972;48.078;11.876;2022-12-07T09:47:51;95295.09;;;3.75;100.00
23589;BME280;11972;48.078;11.876;2022-12-07T09:56:14;95294.72;;;3.87;100.00
23589;BME280;11972;48.078;11.876;2022-12-07T10:00:19;95289.72;;;3.94;100.00
23589;BME280;11972;48.078;11.876;2022-12-07T10:04:25;95285.81;;;4.08;100.00
23589;BME280;11972;48.078;11.876;2022-12-07T10:08:26;95290.44;;;4.14;100.00
23589;BME280;11972;48.078;11.876;2022-12-07T10:12:27;95279.06;;;4.23;100.00
23589;BME280;11972;48.078;11.876;2022-12-07T10:16:36;95276.53;;;4.31;100.00
23589;BME280;11972;48.078;11.876;2022-12-07T10:20:38;95268.75;;;4.39;100.00
23589;BME280;11972;48.078;11.876;2022-12-07T10:24:40;95273.25;;;4.47;100.00
23589;BME280;11972;48.078;11.876;2022-12-07T10:28:42;95272.50;;;4.55;100.00
23589;BME280;11972;48.078;11.876;2022-12-07T10:32:42;95265.63;;;4.54;100.00
23589;BME280;11972;48.078;11.876;2022-12-07T10:36:43;95269.13;;;4.62;100.00
23589;BME280;11972;48.078;11.876;2022-12-07T10:40:43;95264.09;;;4.69;100.00
23589;BME280;11972;48.078;11.876;2022-12-07T10:44:43;95264.59;;;4.72;100.00
23589;BME280;11972;48.078;11.876;2022-12-07T11:10:51;95233.69;;;4.24;100.00
23589;BME280;11972;48.078;11.876;2022-12-07T11:19:32;95230.19;;;3.70;100.00
23589;BME280;11972;48.078;11.876;2022-12-07T11:37:01;95219.19;;;3.48;100.00
23589;BME280;11972;48.078;11.876;2022-12-07T11:41:04;95217.34;;;3.59;100.00
23589;BME280;11972;48.078;11.876;2022-12-07T11:45:19;95221.41;;;3.71;100.00
23589;BME280;11972;48.078;11.876;2022-12-07T11:53:51;95209.84;;;3.91;100.00
23589;BME280;11972;48.078;11.876;2022-12-07T11:58:01;95208.13;;;3.82;100.00
23589;BME280;11972;48.078;11.876;2022-12-07T12:02:16;95192.59;;;3.63;100.00
23589;BME280;11972;48.078;11.876;2022-12-07T12:06:17;95192.44;;;3.37;100.00
23589;BME280;11972;48.078;11.876;2022-12-07T12:10:38;95185.41;;;3.19;100.00
23589;BME280;11972;48.078;11.876;2022-12-07T12:15:00;95186.00;;;3.13;100.00
23589;BME280;11972;48.078;11.876;2022-12-07T12:19:32;95176.66;;;3.11;100.00
23589;BME280;11972;48.078;11.876;2022-12-07T12:27:46;95173.13;;;3.02;100.00
23589;BME280;11972;48.078;11.876;2022-12-07T12:32:30;95181.69;;;2.94;100.00
23589;BME280;11972;48.078;11.876;2022-12-07T12:40:39;95174.75;;;3.13;100.00
23589;BME280;11972;48.078;11.876;2022-12-07T12:44:40;95179.47;;;3.27;100.00
23589;BME280;11972;48.078;11.876;2022-12-07T12:48:41;95177.22;;;3.32;100.00
23589;BME280;11972;48.078;11.876;2022-12-07T13:05:35;95165.25;;;3.39;100.00
23589;BME280;11972;48.078;11.876;2022-12-07T13:09:35;95158.84;;;3.52;100.00
23589;BME280;11972;48.078;11.876;2022-12-07T13:13:36;95157.94;;;3.61;100.00
23589;BME280;11972;48.078;11.876;2022-12-07T13:26:12;95144.38;;;3.75;100.00
23589;BME280;11972;48.078;11.876;2022-12-07T13:30:17;95143.69;;;3.73;100.00
23589;BME280;11972;48.078;11.876;2022-12-07T13:34:32;95141.00;;;3.65;100.00
23589;BME280;11972;48.078;11.876;2022-12-07T13:38:34;95144.00;;;3.70;100.00
23589;BME280;11972;48.078;11.876;2022-12-07T13:42:37;95142.72;;;3.74;100.00
23589;BME280;11972;48.078;11.876;2022-12-07T13:50:52;95149.09;;;3.71;100.00
23589;BME280;11972;48.078;11.876;2022-12-07T13:54:57;95138.28;;;3.66;100.00
23589;BME280;11972;48.078;11.876;2022-12-07T13:58:58;95136.78;;;3.64;100.00
23589;BME280;11972;48.078;11.876;2022-12-07T14:07:26;95132.81;;;3.78;100.00
23589;BME280;11972;48.078;11.876;2022-12-07T14:11:28;95133.41;;;3.71;100.00
23589;BME280;11972;48.078;11.876;2022-12-07T14:15:32;95134.97;;;3.64;100.00
23589;BME280;11972;48.078;11.876;2022-12-07T14:19:59;95137.75;;;3.63;100.00
23589;BME280;11972;48.078;11.876;2022-12-07T14:24:10;95127.31;;;3.63;100.00
23589;BME280;11972;48.078;11.876;2022-12-07T14:28:26;95131.84;;;3.61;100.00
23589;BME280;11972;48.078;11.876;2022-12-07T14:32:28;95136.31;;;3.51;100.00
23589;BME280;11972;48.078;11.876;2022-12-07T14:36:29;95127.16;;;3.46;100.00
23589;BME280;11972;48.078;11.876;2022-12-07T14:40:30;95129.06;;;3.44;100.00
23589;BME280;11972;48.078;11.876;2022-12-07T14:44:30;95136.69;;;3.38;100.00
23589;BME280;11972;48.078;11.876;2022-12-07T14:48:30;95127.91;;;3.29;100.00
23589;BME280;11972;48.078;11.876;2022-12-07T14:52:31;95133.75;;;3.23;100.00
23589;BME280;11972;48.078;11.876;2022-12-07T14:56:31;95133.28;;;3.10;100.00
23589;BME280;11972;48.078;11.876;2022-12-07T15:00:31;95130.91;;;2.89;100.00
23589;BME280;11972;48.078;11.876;2022-12-07T15:04:33;95132.09;;;2.67;100.00
23589;BME280;11972;48.078;11.876;2022-12-07T15:08:33;95129.19;;;2.33;100.00
23589;BME280;11972;48.078;11.876;2022-12-07T15:12:34;95136.25;;;2.03;100.00
23589;BME280;11972;48.078;11.876;2022-12-07T15:16:39;95122.16;;;1.67;100.00
23589;BME280;11972;48.078;11.876;2022-12-07T15:20:40;95125.97;;;1.34;100.00
23589;BME280;11972;48.078;11.876;2022-12-07T15:24:40;95124.00;;;1.07;100.00
23589;BME280;11972;48.078;11.876;2022-12-07T15:28:41;95120.41;;;0.79;100.00
23589;BME280;11972;48.078;11.876;2022-12-07T15:32:42;95123.31;;;0.55;100.00
23589;BME280;11972;48.078;11.876;2022-12-07T15:36:42;95116.38;;;0.34;100.00
23589;BME280;11972;48.078;11.876;2022-12-07T15:40:42;95124.78;;;0.17;100.00
23589;BME280;11972;48.078;11.876;2022-12-07T15:44:46;95125.72;;;-0.05;100.00
23589;BME280;11972;48.078;11.876;2022-12-07T15:49:16;95140.69;;;0.03;100.00
23589;BME280;11972;48.078;11.876;2022-12-07T15:53:17;95134.16;;;-0.13;100.00
23589;BME280;11972;48.078;11.876;2022-12-07T15:57:17;95128.03;;;-0.33;100.00
23589;BME280;11972;48.078;11.876;2022-12-07T16:01:18;95124.66;;;-0.44;100.00
23589;BME280;11972;48.078;11.876;2022-12-07T16:05:19;95120.13;;;-0.63;100.00
23589;BME280;11972;48.078;11.876;2022-12-07T16:09:19;95118.88;;;-0.80;100.00
23589;BME280;11972;48.078;11.876;2022-12-07T16:13:20;95130.47;;;-0.95;100.00
23589;BME280;11972;48.078;11.876;2022-12-07T16:17:21;95122.97;;;-1.10;100.00
23589;BME280;11972;48.078;11.876;2022-12-07T16:21:21;95123.69;;;-1.19;100.00
23589;BME280;11972;48.078;11.876;2022-12-07T16:25:22;95120.63;;;-1.24;100.00
23589;BME280;11972;48.078;11.876;2022-12-07T16:29:22;95126.06;;;-1.27;100.00
23589;BME280;11972;48.078;11.876;2022-12-07T16:33:23;95118.06;;;-1.35;100.00
23589;BME280;11972;48.078;11.876;2022-12-07T16:37:23;95117.25;;;-1.36;100.00
23589;BME280;11972;48.078;11.876;2022-12-07T16:41:23;95118.28;;;-1.38;100.00
23589;BME280;11972;48.078;11.876;2022-12-07T16:45:24;95109.94;;;-1.42;100.00
23589;BME280;11972;48.078;11.876;2022-12-07T16:49:24;95117.00;;;-1.44;100.00
23589;BME280;11972;48.078;11.876;2022-12-07T16:53:25;95113.34;;;-1.41;100.00
23589;BME280;11972;48.078;11.876;2022-12-07T16:57:25;95114.53;;;-1.34;100.00
23589;BME280;11972;48.078;11.876;2022-12-07T17:01:25;95106.03;;;-1.36;100.00
23589;BME280;11972;48.078;11.876;2022-12-07T17:05:28;95113.34;;;-1.30;100.00
23589;BME280;11972;48.078;11.876;2022-12-07T17:09:29;95111.91;;;-1.23;100.00
23589;BME280;11972;48.078;11.876;2022-12-07T17:13:29;95105.78;;;-1.11;100.00
23589;BME280;11972;48.078;11.876;2022-12-07T17:17:53;95106.44;;;-0.97;100.00
23589;BME280;11972;48.078;11.876;2022-12-07T17:21:54;95108.31;;;-1.00;100.00
23589;BME280;11972;48.078;11.876;2022-12-07T17:25:55;95110.91;;;-1.00;100.00
23589;BME280;11972;48.078;11.876;2022-12-07T17:29:55;95098.31;;;-1.04;100.00
23589;BME280;11972;48.078;11.876;2022-12-07T17:33:55;95099.50;;;-1.08;100.00
23589;BME280;11972;48.078;11.876;2022-12-07T17:37:56;95105.41;;;-1.06;100.00
23589;BME280;11972;48.078;11.876;2022-12-07T17:41:56;95104.09;;;-1.01;100.00
23589;BME280;11972;48.078;11.876;2022-12-07T17:46:15;95098.91;;;-1.01;100.00
23589;BME280;11972;48.078;11.876;2022-12-07T17:50:15;95095.72;;;-1.04;100.00
23589;BME280;11972;48.078;11.876;2022-12-07T17:54:16;95097.13;;;-1.00;100.00
23589;BME280;11972;48.078;11.876;2022-12-07T17:58:17;95088.97;;;-0.95;100.00
23589;BME280;11972;48.078;11.876;2022-12-07T18:02:18;95089.47;;;-0.90;100.00
23589;BME280;11972;48.078;11.876;2022-12-07T18:06:18;95092.94;;;-0.80;100.00
23589;BME280;11972;48.078;11.876;2022-12-07T18:10:18;95091.00;;;-0.67;100.00
23589;BME280;11972;48.078;11.876;2022-12-07T18:14:19;95090.00;;;-0.55;100.00
23589;BME280;11972;48.078;11.876;2022-12-07T18:18:19;95081.22;;;-0.42;100.00
23589;BME280;11972;48.078;11.876;2022-12-07T18:22:20;95082.13;;;-0.32;100.00
23589;BME280;11972;48.078;11.876;2022-12-07T18:26:22;95091.75;;;-0.23;100.00
23589;BME280;11972;48.078;11.876;2022-12-07T18:30:22;95090.28;;;-0.16;100.00
23589;BME280;11972;48.078;11.876;2022-12-07T18:34:23;95090.91;;;-0.03;100.00
23589;BME280;11972;48.078;11.876;2022-12-07T18:38:23;95078.53;;;0.11;100.00
23589;BME280;11972;48.078;11.876;2022-12-07T18:42:24;95091.44;;;0.22;100.00
23589;BME280;11972;48.078;11.876;2022-12-07T18:46:24;95087.91;;;0.33;100.00
23589;BME280;11972;48.078;11.876;2022-12-07T18:50:25;95080.28;;;0.41;100.00
23589;BME280;11972;48.078;11.876;2022-12-07T18:54:25;95060.63;;;0.38;100.00
23589;BME280;11972;48.078;11.876;2022-12-07T18:58:26;95078.97;;;0.46;100.00
23589;BME280;11972;48.078;11.876;2022-12-07T19:02:26;95073.22;;;0.53;100.00
23589;BME280;11972;48.078;11.876;2022-12-07T19:06:27;95077.50;;;0.54;100.00
23589;BME280;11972;48.078;11.876;2022-12-07T19:10:27;95069.88;;;0.62;100.00
23589;BME280;11972;48.078;11.876;2022-12-07T19:14:30;95076.03;;;0.70;100.00
23589;BME280;11972;48.078;11.876;2022-12-07T19:18:31;95076.31;;;0.77;100.00
23589;BME280;11972;48.078;11.876;2022-12-07T19:22:33;95080.03;;;0.84;100.00
23589;BME280;11972;48.078;11.876;2022-12-07T19:26:33;95074.44;;;0.89;100.00
23589;BME280;11972;48.078;11.876;2022-12-07T19:30:34;95079.63;;;0.89;100.00
23589;BME280;11972;48.078;11.876;2022-12-07T19:34:39;95080.19;;;0.92;100.00
23589;BME280;11972;48.078;11.876;2022-12-07T19:38:40;95072.25;;;0.94;100.00
23589;BME280;11972;48.078;11.876;2022-12-07T19:42:41;95063.75;;;1.02;100.00
23589;BME280;11972;48.078;11.876;2022-12-07T19:46:42;95065.13;;;1.06;100.00
23589;BME280;11972;48.078;11.876;2022-12-07T19:50:45;95057.75;;;1.11;100.00
23589;BME280;11972;48.078;11.876;2022-12-07T19:54:46;95059.41;;;1.12;100.00
23589;BME280;11972;48.078;11.876;2022-12-07T19:58:46;95059.28;;;1.13;100.00
23589;BME280;11972;48.078;11.876;2022-12-07T20:02:50;95066.50;;;1.10;100.00
23589;BME280;11972;48.078;11.876;2022-12-07T20:06:56;95069.78;;;1.02;100.00
23589;BME280;11972;48.078;11.876;2022-12-07T20:10:57;95058.31;;;1.05;100.00
23589;BME280;11972;48.078;11.876;2022-12-07T20:14:57;95057.59;;;1.03;100.00
23589;BME280;11972;48.078;11.876;2022-12-07T20:18:58;95050.09;;;0.99;100.00
23589;BME280;11972;48.078;11.876;2022-12-07T20:22:59;95047.31;;;0.82;100.00
23589;BME280;11972;48.078;11.876;2022-12-07T20:26:59;95051.94;;;0.78;100.00
23589;BME280;11972;48.078;11.876;2022-12-07T20:31:00;95052.50;;;0.82;100.00
23589;BME280;11972;48.078;11.876;2022-12-07T20:35:00;95047.19;;;0.83;100.00
23589;BME280;11972;48.078;11.876;2022-12-07T20:39:02;95047.88;;;0.85;100.00
23589;BME280;11972;48.078;11.876;2022-12-07T20:43:03;95048.69;;;0.86;100.00
23589;BME280;11972;48.078;11.876;2022-12-07T20:47:04;95038.28;;;0.86;100.00
23589;BME280;11972;48.078;11.876;2022-12-07T20:51:05;95041.69;;;0.86;100.00
23589;BME280;11972;48.078;11.876;2022-12-07T20:55:06;95038.69;;;0.81;100.00
23589;BME280;11972;48.078;11.876;2022-12-07T20:59:09;95031.44;;;0.85;100.00
23589;BME280;11972;48.078;11.876;2022-12-07T21:03:10;95025.44;;;0.84;100.00
23589;BME280;11972;48.078;11.876;2022-12-07T21:07:10;95028.44;;;0.80;100.00
23589;BME280;11972;48.078;11.876;2022-12-07T21:11:11;95013.34;;;0.64;100.00
23589;BME280;11972;48.078;11.876;2022-12-07T21:15:11;95018.66;;;0.53;100.00
23589;BME280;11972;48.078;11.876;2022-12-07T21:19:12;95011.41;;;0.56;100.00
23589;BME280;11972;48.078;11.876;2022-12-07T21:23:12;95015.81;;;0.65;100.00
23589;BME280;11972;48.078;11.876;2022-12-07T21:27:12;95017.19;;;0.69;100.00
23589;BME280;11972;48.078;11.876;2022-12-07T21:31:13;95008.16;;;0.64;100.00
23589;BME280;11972;48.078;11.876;2022-12-07T21:35:13;95007.47;;;0.62;100.00
23589;BME280;11972;48.078;11.876;2022-12-07T21:39:14;95002.97;;;0.64;100.00
23589;BME280;11972;48.078;11.876;2022-12-07T21:43:14;95004.59;;;0.65;100.00
23589;BME280;11972;48.078;11.876;2022-12-07T21:47:14;95004.34;;;0.68;100.00
23589;BME280;11972;48.078;11.876;2022-12-07T21:51:15;95003.53;;;0.77;100.00
23589;BME280;11972;48.078;11.876;2022-12-07T21:55:15;95007.09;;;0.86;100.00
23589;BME280;11972;48.078;11.876;2022-12-07T21:59:16;94993.00;;;0.88;100.00
23589;BME280;11972;48.078;11.876;2022-12-07T22:03:20;95005.75;;;0.91;100.00
23589;BME280;11972;48.078;11.876;2022-12-07T22:07:20;95005.31;;;0.96;100.00
23589;BME280;11972;48.078;11.876;2022-12-07T22:11:21;95009.31;;;1.00;100.00
23589;BME280;11972;48.078;11.876;2022-12-07T22:15:22;94999.44;;;1.04;100.00
23589;BME280;11972;48.078;11.876;2022-12-07T22:19:22;95001.09;;;1.05;100.00
23589;BME280;11972;48.078;11.876;2022-12-07T22:23:22;94998.50;;;1.05;100.00
23589;BME280;11972;48.078;11.876;2022-12-07T22:27:23;94993.28;;;1.05;100.00
23589;BME280;11972;48.078;11.876;2022-12-07T22:31:23;94985.47;;;1.05;100.00
23589;BME280;11972;48.078;11.876;2022-12-07T22:35:24;94989.72;;;1.06;100.00
23589;BME280;11972;48.078;11.876;2022-12-07T22:39:24;94993.13;;;1.06;100.00
23589;BME280;11972;48.078;11.876;2022-12-07T22:43:25;94991.34;;;1.07;100.00
23589;BME280;11972;48.078;11.876;2022-12-07T22:47:25;94985.88;;;1.10;100.00